sensor_id;sensor_type;location;lat;lon;timestamp;P1;durP1;ratioP1;P2;durP2;ratioP2
67348;SDS011;54234;50.320;3.474;2022-09-01T00:01:12;0.40;;;0.40;;
67348;SDS011;54234;50.320;3.474;2022-09-01T00:03:51;0.40;;;0.40;;
67348;SDS011;54234;50.320;3.474;2022-09-01T00:06:18;0.40;;;0.40;;
67348;SDS011;54234;50.320;3.474;2022-09-01T00:08:50;0.40;;;0.40;;
67348;SDS011;54234;50.320;3.474;2022-09-01T00:11:16;0.40;;;0.40;;
67348;SDS011;54234;50.320;3.474;2022-09-01T00:13:42;0.40;;;0.40;;
67348;SDS011;54234;50.320;3.474;2022-09-01T00:16:07;0.40;;;0.40;;
67348;SDS011;54234;50.320;3.474;2022-09-01T00:18:33;0.40;;;0.40;;
67348;SDS011;54234;50.320;3.474;2022-09-01T00:21:00;0.40;;;0.40;;
67348;SDS011;54234;50.320;3.474;2022-09-01T00:23:26;0.40;;;0.40;;
67348;SDS011;54234;50.320;3.474;2022-09-01T00:25:52;0.30;;;0.30;;
67348;SDS011;54234;50.320;3.474;2022-09-01T00:28:17;0.40;;;0.40;;
67348;SDS011;54234;50.320;3.474;2022-09-01T00:30:42;0.37;;;0.37;;
67348;SDS011;54234;50.320;3.474;2022-09-01T00:33:08;0.40;;;0.40;;
67348;SDS011;54234;50.320;3.474;2022-09-01T00:35:33;0.40;;;0.40;;
67348;SDS011;54234;50.320;3.474;2022-09-01T00:37:58;0.40;;;0.40;;
67348;SDS011;54234;50.320;3.474;2022-09-01T00:40:24;0.40;;;0.40;;
67348;SDS011;54234;50.320;3.474;2022-09-01T00:42:49;0.30;;;0.30;;
67348;SDS011;54234;50.320;3.474;2022-09-01T00:45:15;0.33;;;0.33;;
67348;SDS011;54234;50.320;3.474;2022-09-01T00:47:40;0.40;;;0.40;;
67348;SDS011;54234;50.320;3.474;2022-09-01T00:50:07;0.40;;;0.40;;
67348;SDS011;54234;50.320;3.474;2022-09-01T00:52:34;0.40;;;0.40;;
67348;SDS011;54234;50.320;3.474;2022-09-01T00:55:05;0.32;;;0.32;;
67348;SDS011;54234;50.320;3.474;2022-09-01T00:57:33;0.30;;;0.30;;
67348;SDS011;54234;50.320;3.474;2022-09-01T01:00:00;0.35;;;0.35;;
67348;SDS011;54234;50.320;3.474;2022-09-01T01:02:29;0.30;;;0.30;;
67348;SDS011;54234;50.320;3.474;2022-09-01T01:04:55;0.30;;;0.30;;
67348;SDS011;54234;50.320;3.474;2022-09-01T01:07:24;0.40;;;0.40;;
67348;SDS011;54234;50.320;3.474;2022-09-01T01:09:51;0.40;;;0.40;;
67348;SDS011;54234;50.320;3.474;2022-09-01T01:12:17;0.40;;;0.40;;
67348;SDS011;54234;50.320;3.474;2022-09-01T01:14:43;0.40;;;0.40;;
67348;SDS011;54234;50.320;3.474;2022-09-01T01:17:11;0.30;;;0.30;;
67348;SDS011;54234;50.320;3.474;2022-09-01T01:22:28;0.40;;;0.40;;
67348;SDS011;54234;50.320;3.474;2022-09-01T01:25:25;0.40;;;0.40;;
67348;SDS011;54234;50.320;3.474;2022-09-01T01:27:50;0.40;;;0.40;;
67348;SDS011;54234;50.320;3.474;2022-09-01T01:30:16;0.30;;;0.30;;
67348;SDS011;54234;50.320;3.474;2022-09-01T01:32:43;0.30;;;0.30;;
67348;SDS011;54234;50.320;3.474;2022-09-01T01:35:10;0.30;;;0.30;;
67348;SDS011;54234;50.320;3.474;2022-09-01T01:37:38;0.40;;;0.40;;
67348;SDS011;54234;50.320;3.474;2022-09-01T01:40:07;0.38;;;0.38;;
67348;SDS011;54234;50.320;3.474;2022-09-01T01:42:39;0.30;;;0.30;;
67348;SDS011;54234;50.320;3.474;2022-09-01T01:45:08;0.38;;;0.38;;
67348;SDS011;54234;50.320;3.474;2022-09-01T01:47:36;0.40;;;0.40;;
67348;SDS011;54234;50.320;3.474;2022-09-01T01:50:02;0.30;;;0.30;;
67348;SDS011;54234;50.320;3.474;2022-09-01T01:52:33;0.40;;;0.40;;
67348;SDS011;54234;50.320;3.474;2022-09-01T01:55:00;0.32;;;0.32;;
67348;SDS011;54234;50.320;3.474;2022-09-01T01:57:26;0.40;;;0.40;;
67348;SDS011;54234;50.320;3.474;2022-09-01T01:59:55;0.30;;;0.30;;
67348;SDS011;54234;50.320;3.474;2022-09-01T02:02:21;0.30;;;0.30;;
67348;SDS011;54234;50.320;3.474;2022-09-01T02:04:46;0.30;;;0.30;;
67348;SDS011;54234;50.320;3.474;2022-09-01T02:07:12;0.30;;;0.30;;
67348;SDS011;54234;50.320;3.474;2022-09-01T02:09:37;0.40;;;0.40;;
67348;SDS011;54234;50.320;3.474;2022-09-01T02:12:04;0.30;;;0.30;;
67348;SDS011;54234;50.320;3.474;2022-09-01T02:14:32;0.30;;;0.30;;
67348;SDS011;54234;50.320;3.474;2022-09-01T02:16:57;0.40;;;0.40;;
67348;SDS011;54234;50.320;3.474;2022-09-01T02:19:31;0.32;;;0.32;;
67348;SDS011;54234;50.320;3.474;2022-09-01T02:22:00;0.32;;;0.32;;
67348;SDS011;54234;50.320;3.474;2022-09-01T02:24:25;0.30;;;0.30;;
67348;SDS011;54234;50.320;3.474;2022-09-01T02:26:54;0.40;;;0.40;;
67348;SDS011;54234;50.320;3.474;2022-09-01T02:29:21;0.30;;;0.30;;
67348;SDS011;54234;50.320;3.474;2022-09-01T02:31:48;0.30;;;0.30;;
67348;SDS011;54234;50.320;3.474;2022-09-01T02:34:16;0.30;;;0.30;;
67348;SDS011;54234;50.320;3.474;2022-09-01T02:36:43;0.40;;;0.40;;
67348;SDS011;54234;50.320;3.474;2022-09-01T02:39:15;0.40;;;0.40;;
67348;SDS011;54234;50.320;3.474;2022-09-01T02:41:42;0.30;;;0.30;;
67348;SDS011;54234;50.320;3.474;2022-09-01T02:44:08;0.33;;;0.33;;
67348;SDS011;54234;50.320;3.474;2022-09-01T02:46:38;0.30;;;0.30;;
67348;SDS011;54234;50.320;3.474;2022-09-01T02:49:08;0.30;;;0.30;;
67348;SDS011;54234;50.320;3.474;2022-09-01T02:51:40;0.30;;;0.30;;
67348;SDS011;54234;50.320;3.474;2022-09-01T02:54:07;0.30;;;0.30;;
67348;SDS011;54234;50.320;3.474;2022-09-01T02:56:33;0.30;;;0.30;;
67348;SDS011;54234;50.320;3.474;2022-09-01T02:58:58;0.30;;;0.30;;
67348;SDS011;54234;50.320;3.474;2022-09-01T03:01:25;0.40;;;0.40;;
67348;SDS011;54234;50.320;3.474;2022-09-01T03:03:55;0.30;;;0.30;;
67348;SDS011;54234;50.320;3.474;2022-09-01T03:06:22;0.30;;;0.30;;
67348;SDS011;54234;50.320;3.474;2022-09-01T03:08:52;0.30;;;0.30;;
67348;SDS011;54234;50.320;3.474;2022-09-01T03:11:19;0.30;;;0.30;;
67348;SDS011;54234;50.320;3.474;2022-09-01T03:13:45;0.30;;;0.30;;
67348;SDS011;54234;50.320;3.474;2022-09-01T03:16:11;0.30;;;0.30;;
67348;SDS011;54234;50.320;3.474;2022-09-01T03:18:37;0.30;;;0.30;;
67348;SDS011;54234;50.320;3.474;2022-09-01T03:21:03;0.30;;;0.30;;
67348;SDS011;54234;50.320;3.474;2022-09-01T03:23:30;0.30;;;0.30;;
67348;SDS011;54234;50.320;3.474;2022-09-01T03:25:57;0.30;;;0.30;;
67348;SDS011;54234;50.320;3.474;2022-09-01T03:28:22;0.40;;;0.40;;
67348;SDS011;54234;50.320;3.474;2022-09-01T03:30:49;0.30;;;0.30;;
67348;SDS011;54234;50.320;3.474;2022-09-01T03:33:17;0.30;;;0.30;;
67348;SDS011;54234;50.320;3.474;2022-09-01T03:35:44;0.30;;;0.30;;
67348;SDS011;54234;50.320;3.474;2022-09-01T03:38:10;0.30;;;0.30;;
67348;SDS011;54234;50.320;3.474;2022-09-01T03:40:37;0.40;;;0.40;;
67348;SDS011;54234;50.320;3.474;2022-09-01T03:43:04;0.30;;;0.30;;
67348;SDS011;54234;50.320;3.474;2022-09-01T03:45:36;0.30;;;0.30;;
67348;SDS011;54234;50.320;3.474;2022-09-01T03:48:03;0.40;;;0.40;;
67348;SDS011;54234;50.320;3.474;2022-09-01T03:50:33;0.40;;;0.40;;
67348;SDS011;54234;50.320;3.474;2022-09-01T03:53:00;0.30;;;0.30;;
67348;SDS011;54234;50.320;3.474;2022-09-01T03:55:27;0.30;;;0.30;;
67348;SDS011;54234;50.320;3.474;2022-09-01T03:57:59;0.30;;;0.30;;
67348;SDS011;54234;50.320;3.474;2022-09-01T04:00:30;0.40;;;0.40;;
67348;SDS011;54234;50.320;3.474;2022-09-01T04:03:00;0.30;;;0.30;;
67348;SDS011;54234;50.320;3.474;2022-09-01T04:05:27;0.30;;;0.30;;
67348;SDS011;54234;50.320;3.474;2022-09-01T04:07:56;0.40;;;0.40;;
67348;SDS011;54234;50.320;3.474;2022-09-01T04:10:24;0.30;;;0.30;;
67348;SDS011;54234;50.320;3.474;2022-09-01T04:12:50;0.30;;;0.30;;
67348;SDS011;54234;50.320;3.474;2022-09-01T04:15:16;0.30;;;0.30;;
67348;SDS011;54234;50.320;3.474;2022-09-01T04:17:42;0.30;;;0.30;;
67348;SDS011;54234;50.320;3.474;2022-09-01T04:20:27;0.30;;;0.30;;
67348;SDS011;54234;50.320;3.474;2022-09-01T04:22:53;0.30;;;0.30;;
67348;SDS011;54234;50.320;3.474;2022-09-01T04:25:19;0.40;;;0.40;;
67348;SDS011;54234;50.320;3.474;2022-09-01T04:27:50;0.30;;;0.30;;
67348;SDS011;54234;50.320;3.474;2022-09-01T04:30:19;0.30;;;0.30;;
67348;SDS011;54234;50.320;3.474;2022-09-01T04:32:48;0.30;;;0.30;;
67348;SDS011;54234;50.320;3.474;2022-09-01T04:35:15;0.30;;;0.30;;
67348;SDS011;54234;50.320;3.474;2022-09-01T04:37:42;0.30;;;0.30;;
67348;SDS011;54234;50.320;3.474;2022-09-01T04:40:07;0.30;;;0.30;;
67348;SDS011;54234;50.320;3.474;2022-09-01T04:42:34;0.30;;;0.30;;
67348;SDS011;54234;50.320;3.474;2022-09-01T04:45:00;0.30;;;0.30;;
67348;SDS011;54234;50.320;3.474;2022-09-01T04:47:27;0.30;;;0.30;;
67348;SDS011;54234;50.320;3.474;2022-09-01T04:49:55;0.30;;;0.30;;
67348;SDS011;54234;50.320;3.474;2022-09-01T04:52:23;0.30;;;0.30;;
67348;SDS011;54234;50.320;3.474;2022-09-01T04:54:48;0.30;;;0.30;;
67348;SDS011;54234;50.320;3.474;2022-09-01T04:57:14;0.30;;;0.30;;
67348;SDS011;54234;50.320;3.474;2022-09-01T04:59:40;0.35;;;0.35;;
67348;SDS011;54234;50.320;3.474;2022-09-01T05:02:06;0.30;;;0.30;;
67348;SDS011;54234;50.320;3.474;2022-09-01T05:04:33;0.30;;;0.30;;
67348;SDS011;54234;50.320;3.474;2022-09-01T05:06:59;0.30;;;0.30;;
67348;SDS011;54234;50.320;3.474;2022-09-01T05:09:26;0.30;;;0.30;;
67348;SDS011;54234;50.320;3.474;2022-09-01T05:11:53;0.30;;;0.30;;
67348;SDS011;54234;50.320;3.474;2022-09-01T05:14:19;0.30;;;0.30;;
67348;SDS011;54234;50.320;3.474;2022-09-01T05:16:45;0.30;;;0.30;;
67348;SDS011;54234;50.320;3.474;2022-09-01T05:19:11;0.30;;;0.30;;
67348;SDS011;54234;50.320;3.474;2022-09-01T05:21:38;0.30;;;0.30;;
67348;SDS011;54234;50.320;3.474;2022-09-01T05:24:09;0.30;;;0.30;;
67348;SDS011;54234;50.320;3.474;2022-09-01T05:26:39;0.30;;;0.30;;
67348;SDS011;54234;50.320;3.474;2022-09-01T05:29:06;0.30;;;0.30;;
67348;SDS011;54234;50.320;3.474;2022-09-01T05:31:37;0.30;;;0.30;;
67348;SDS011;54234;50.320;3.474;2022-09-01T05:34:06;0.30;;;0.30;;
67348;SDS011;54234;50.320;3.474;2022-09-01T05:36:34;0.40;;;0.40;;
67348;SDS011;54234;50.320;3.474;2022-09-01T05:39:00;0.30;;;0.30;;
67348;SDS011;54234;50.320;3.474;2022-09-01T05:41:26;0.30;;;0.30;;
67348;SDS011;54234;50.320;3.474;2022-09-01T05:43:52;0.30;;;0.30;;
67348;SDS011;54234;50.320;3.474;2022-09-01T05:46:19;0.30;;;0.30;;
67348;SDS011;54234;50.320;3.474;2022-09-01T05:48:47;0.30;;;0.30;;
67348;SDS011;54234;50.320;3.474;2022-09-01T05:51:16;0.30;;;0.30;;
67348;SDS011;54234;50.320;3.474;2022-09-01T05:53:44;0.30;;;0.30;;
67348;SDS011;54234;50.320;3.474;2022-09-01T05:56:11;0.30;;;0.30;;
67348;SDS011;54234;50.320;3.474;2022-09-01T05:58:39;0.30;;;0.30;;
67348;SDS011;54234;50.320;3.474;2022-09-01T06:01:07;0.30;;;0.30;;
67348;SDS011;54234;50.320;3.474;2022-09-01T06:03:34;0.30;;;0.30;;
67348;SDS011;54234;50.320;3.474;2022-09-01T06:06:01;0.30;;;0.30;;
67348;SDS011;54234;50.320;3.474;2022-09-01T06:08:29;0.30;;;0.30;;
67348;SDS011;54234;50.320;3.474;2022-09-01T06:10:54;0.30;;;0.30;;
67348;SDS011;54234;50.320;3.474;2022-09-01T06:13:20;0.30;;;0.30;;
67348;SDS011;54234;50.320;3.474;2022-09-01T06:15:48;0.30;;;0.30;;
67348;SDS011;54234;50.320;3.474;2022-09-01T06:18:17;0.38;;;0.38;;
67348;SDS011;54234;50.320;3.474;2022-09-01T06:20:44;0.30;;;0.30;;
67348;SDS011;54234;50.320;3.474;2022-09-01T06:23:11;0.30;;;0.30;;
67348;SDS011;54234;50.320;3.474;2022-09-01T06:25:38;0.30;;;0.30;;
67348;SDS011;54234;50.320;3.474;2022-09-01T06:28:07;0.30;;;0.30;;
67348;SDS011;54234;50.320;3.474;2022-09-01T06:30:35;0.30;;;0.30;;
67348;SDS011;54234;50.320;3.474;2022-09-01T06:33:02;0.30;;;0.30;;
67348;SDS011;54234;50.320;3.474;2022-09-01T06:35:33;0.30;;;0.30;;
67348;SDS011;54234;50.320;3.474;2022-09-01T06:37:59;0.30;;;0.30;;
67348;SDS011;54234;50.320;3.474;2022-09-01T06:40:25;0.30;;;0.30;;
67348;SDS011;54234;50.320;3.474;2022-09-01T06:42:51;0.30;;;0.30;;
67348;SDS011;54234;50.320;3.474;2022-09-01T06:45:19;0.30;;;0.30;;
67348;SDS011;54234;50.320;3.474;2022-09-01T06:47:46;0.32;;;0.32;;
67348;SDS011;54234;50.320;3.474;2022-09-01T06:50:17;0.30;;;0.30;;
67348;SDS011;54234;50.320;3.474;2022-09-01T06:52:46;0.30;;;0.30;;
67348;SDS011;54234;50.320;3.474;2022-09-01T06:55:25;0.40;;;0.40;;
67348;SDS011;54234;50.320;3.474;2022-09-01T06:57:51;0.40;;;0.40;;
67348;SDS011;54234;50.320;3.474;2022-09-01T07:00:18;0.40;;;0.40;;
67348;SDS011;54234;50.320;3.474;2022-09-01T07:02:51;0.30;;;0.30;;
67348;SDS011;54234;50.320;3.474;2022-09-01T07:05:18;0.30;;;0.30;;
67348;SDS011;54234;50.320;3.474;2022-09-01T07:07:46;0.40;;;0.40;;
67348;SDS011;54234;50.320;3.474;2022-09-01T07:10:13;0.40;;;0.40;;
67348;SDS011;54234;50.320;3.474;2022-09-01T07:12:39;0.30;;;0.30;;
67348;SDS011;54234;50.320;3.474;2022-09-01T07:15:10;0.40;;;0.40;;
67348;SDS011;54234;50.320;3.474;2022-09-01T07:17:37;0.30;;;0.30;;
67348;SDS011;54234;50.320;3.474;2022-09-01T07:20:05;0.30;;;0.30;;
67348;SDS011;54234;50.320;3.474;2022-09-01T07:22:32;0.30;;;0.30;;
67348;SDS011;54234;50.320;3.474;2022-09-01T07:24:58;0.30;;;0.30;;
67348;SDS011;54234;50.320;3.474;2022-09-01T07:27:23;0.30;;;0.30;;
67348;SDS011;54234;50.320;3.474;2022-09-01T07:29:51;0.30;;;0.30;;
67348;SDS011;54234;50.320;3.474;2022-09-01T07:32:21;0.32;;;0.32;;
67348;SDS011;54234;50.320;3.474;2022-09-01T07:34:47;0.30;;;0.30;;
67348;SDS011;54234;50.320;3.474;2022-09-01T07:37:12;0.30;;;0.30;;
67348;SDS011;54234;50.320;3.474;2022-09-01T07:39:38;0.40;;;0.40;;
67348;SDS011;54234;50.320;3.474;2022-09-01T07:42:09;0.40;;;0.40;;
67348;SDS011;54234;50.320;3.474;2022-09-01T07:44:36;0.40;;;0.40;;
67348;SDS011;54234;50.320;3.474;2022-09-01T07:47:02;0.30;;;0.30;;
67348;SDS011;54234;50.320;3.474;2022-09-01T07:49:32;0.40;;;0.40;;
67348;SDS011;54234;50.320;3.474;2022-09-01T07:51:58;0.30;;;0.30;;
67348;SDS011;54234;50.320;3.474;2022-09-01T07:54:27;0.38;;;0.38;;
67348;SDS011;54234;50.320;3.474;2022-09-01T07:56:54;0.40;;;0.40;;
67348;SDS011;54234;50.320;3.474;2022-09-01T07:59:20;0.40;;;0.40;;
67348;SDS011;54234;50.320;3.474;2022-09-01T08:01:45;0.40;;;0.40;;
67348;SDS011;54234;50.320;3.474;2022-09-01T08:04:11;0.40;;;0.40;;
67348;SDS011;54234;50.320;3.474;2022-09-01T08:06:36;0.40;;;0.40;;
67348;SDS011;54234;50.320;3.474;2022-09-01T08:09:02;0.40;;;0.40;;
67348;SDS011;54234;50.320;3.474;2022-09-01T08:11:30;0.40;;;0.40;;
67348;SDS011;54234;50.320;3.474;2022-09-01T08:13:56;0.40;;;0.40;;
67348;SDS011;54234;50.320;3.474;2022-09-01T08:16:23;0.40;;;0.40;;
67348;SDS011;54234;50.320;3.474;2022-09-01T08:18:49;0.32;;;0.32;;
67348;SDS011;54234;50.320;3.474;2022-09-01T08:21:15;0.40;;;0.40;;
67348;SDS011;54234;50.320;3.474;2022-09-01T08:23:41;0.40;;;0.40;;
67348;SDS011;54234;50.320;3.474;2022-09-01T08:26:08;0.40;;;0.40;;
67348;SDS011;54234;50.320;3.474;2022-09-01T08:28:35;0.40;;;0.40;;
67348;SDS011;54234;50.320;3.474;2022-09-01T08:31:19;0.40;;;0.40;;
67348;SDS011;54234;50.320;3.474;2022-09-01T08:33:46;0.40;;;0.40;;
67348;SDS011;54234;50.320;3.474;2022-09-01T08:36:12;0.40;;;0.40;;
67348;SDS011;54234;50.320;3.474;2022-09-01T08:38:39;0.40;;;0.40;;
67348;SDS011;54234;50.320;3.474;2022-09-01T08:41:12;0.40;;;0.40;;
67348;SDS011;54234;50.320;3.474;2022-09-01T08:43:45;0.40;;;0.40;;
67348;SDS011;54234;50.320;3.474;2022-09-01T08:46:24;0.40;;;0.40;;
67348;SDS011;54234;50.320;3.474;2022-09-01T08:48:53;0.40;;;0.40;;
67348;SDS011;54234;50.320;3.474;2022-09-01T08:56:38;0.40;;;0.40;;
67348;SDS011;54234;50.320;3.474;2022-09-01T08:59:05;0.50;;;0.50;;
67348;SDS011;54234;50.320;3.474;2022-09-01T09:07:21;0.50;;;0.50;;
67348;SDS011;54234;50.320;3.474;2022-09-01T09:09:51;0.50;;;0.50;;
67348;SDS011;54234;50.320;3.474;2022-09-01T09:12:35;0.40;;;0.40;;
67348;SDS011;54234;50.320;3.474;2022-09-01T09:18:04;0.50;;;0.50;;
67348;SDS011;54234;50.320;3.474;2022-09-01T09:20:35;0.50;;;0.50;;
67348;SDS011;54234;50.320;3.474;2022-09-01T09:23:01;0.60;;;0.60;;
67348;SDS011;54234;50.320;3.474;2022-09-01T09:25:35;0.60;;;0.60;;
67348;SDS011;54234;50.320;3.474;2022-09-01T09:28:00;0.60;;;0.60;;
67348;SDS011;54234;50.320;3.474;2022-09-01T09:30:27;0.60;;;0.60;;
67348;SDS011;54234;50.320;3.474;2022-09-01T09:33:03;0.60;;;0.60;;
67348;SDS011;54234;50.320;3.474;2022-09-01T09:43:28;0.60;;;0.60;;
67348;SDS011;54234;50.320;3.474;2022-09-01T09:48:45;0.70;;;0.70;;
67348;SDS011;54234;50.320;3.474;2022-09-01T09:51:15;0.70;;;0.70;;
67348;SDS011;54234;50.320;3.474;2022-09-01T09:53:43;0.70;;;0.70;;
67348;SDS011;54234;50.320;3.474;2022-09-01T09:56:15;0.60;;;0.60;;
67348;SDS011;54234;50.320;3.474;2022-09-01T09:58:43;0.70;;;0.70;;
67348;SDS011;54234;50.320;3.474;2022-09-01T10:01:11;0.70;;;0.70;;
67348;SDS011;54234;50.320;3.474;2022-09-01T10:03:44;0.60;;;0.60;;
67348;SDS011;54234;50.320;3.474;2022-09-01T10:06:15;0.60;;;0.60;;
67348;SDS011;54234;50.320;3.474;2022-09-01T10:09:04;0.68;;;0.68;;
67348;SDS011;54234;50.320;3.474;2022-09-01T10:11:41;0.70;;;0.70;;
67348;SDS011;54234;50.320;3.474;2022-09-01T10:16:49;0.60;;;0.60;;
67348;SDS011;54234;50.320;3.474;2022-09-01T10:19:17;0.70;;;0.70;;
67348;SDS011;54234;50.320;3.474;2022-09-01T10:21:44;0.70;;;0.70;;
67348;SDS011;54234;50.320;3.474;2022-09-01T10:24:18;0.70;;;0.70;;
67348;SDS011;54234;50.320;3.474;2022-09-01T10:26:55;0.70;;;0.70;;
67348;SDS011;54234;50.320;3.474;2022-09-01T10:29:33;0.70;;;0.70;;
67348;SDS011;54234;50.320;3.474;2022-09-01T10:32:01;0.60;;;0.60;;
67348;SDS011;54234;50.320;3.474;2022-09-01T10:34:32;0.70;;;0.70;;
67348;SDS011;54234;50.320;3.474;2022-09-01T10:37:00;0.67;;;0.67;;
67348;SDS011;54234;50.320;3.474;2022-09-01T10:39:25;0.70;;;0.70;;
67348;SDS011;54234;50.320;3.474;2022-09-01T10:41:52;0.70;;;0.70;;
67348;SDS011;54234;50.320;3.474;2022-09-01T10:45:03;0.60;;;0.60;;
67348;SDS011;54234;50.320;3.474;2022-09-01T10:47:27;0.60;;;0.60;;
67348;SDS011;54234;50.320;3.474;2022-09-01T10:55:09;0.60;;;0.60;;
67348;SDS011;54234;50.320;3.474;2022-09-01T11:05:59;0.57;;;0.57;;
67348;SDS011;54234;50.320;3.474;2022-09-01T11:11:03;0.60;;;0.60;;
67348;SDS011;54234;50.320;3.474;2022-09-01T11:13:40;0.60;;;0.60;;
67348;SDS011;54234;50.320;3.474;2022-09-01T11:19:43;0.80;;;0.80;;
67348;SDS011;54234;50.320;3.474;2022-09-01T11:27:03;1.00;;;1.00;;
67348;SDS011;54234;50.320;3.474;2022-09-01T11:32:39;1.10;;;1.10;;
67348;SDS011;54234;50.320;3.474;2022-09-01T11:35:06;0.90;;;0.90;;
67348;SDS011;54234;50.320;3.474;2022-09-01T11:37:39;0.80;;;0.80;;
67348;SDS011;54234;50.320;3.474;2022-09-01T11:40:05;0.80;;;0.80;;
67348;SDS011;54234;50.320;3.474;2022-09-01T11:42:38;0.80;;;0.80;;
67348;SDS011;54234;50.320;3.474;2022-09-01T11:45:13;0.80;;;0.80;;
67348;SDS011;54234;50.320;3.474;2022-09-01T11:47:42;0.90;;;0.90;;
67348;SDS011;54234;50.320;3.474;2022-09-01T11:50:19;0.90;;;0.90;;
67348;SDS011;54234;50.320;3.474;2022-09-01T11:55:31;1.00;;;1.00;;
67348;SDS011;54234;50.320;3.474;2022-09-01T11:57:58;1.10;;;1.10;;
67348;SDS011;54234;50.320;3.474;2022-09-01T12:00:26;1.00;;;1.00;;
67348;SDS011;54234;50.320;3.474;2022-09-01T12:02:53;0.90;;;0.90;;
67348;SDS011;54234;50.320;3.474;2022-09-01T12:07:52;1.13;;;1.13;;
67348;SDS011;54234;50.320;3.474;2022-09-01T12:10:23;1.10;;;1.10;;
67348;SDS011;54234;50.320;3.474;2022-09-01T12:13:03;1.20;;;1.20;;
67348;SDS011;54234;50.320;3.474;2022-09-01T12:15:52;1.30;;;1.30;;
67348;SDS011;54234;50.320;3.474;2022-09-01T12:18:22;1.10;;;1.10;;
67348;SDS011;54234;50.320;3.474;2022-09-01T12:20:52;1.30;;;1.30;;
67348;SDS011;54234;50.320;3.474;2022-09-01T12:25:54;1.20;;;1.20;;
67348;SDS011;54234;50.320;3.474;2022-09-01T12:28:25;1.10;;;1.10;;
67348;SDS011;54234;50.320;3.474;2022-09-01T12:30:53;1.20;;;1.20;;
67348;SDS011;54234;50.320;3.474;2022-09-01T12:33:19;1.20;;;1.20;;
67348;SDS011;54234;50.320;3.474;2022-09-01T12:35:45;1.20;;;1.20;;
67348;SDS011;54234;50.320;3.474;2022-09-01T12:38:23;1.20;;;1.20;;
67348;SDS011;54234;50.320;3.474;2022-09-01T12:40:53;1.27;;;1.27;;
67348;SDS011;54234;50.320;3.474;2022-09-01T12:43:31;1.30;;;1.30;;
67348;SDS011;54234;50.320;3.474;2022-09-01T12:46:01;1.23;;;1.23;;
67348;SDS011;54234;50.320;3.474;2022-09-01T12:48:35;1.30;;;1.30;;
67348;SDS011;54234;50.320;3.474;2022-09-01T12:51:16;1.30;;;1.30;;
67348;SDS011;54234;50.320;3.474;2022-09-01T12:53:49;1.40;;;1.40;;
67348;SDS011;54234;50.320;3.474;2022-09-01T12:56:19;1.40;;;1.40;;
67348;SDS011;54234;50.320;3.474;2022-09-01T12:58:48;1.30;;;1.30;;
67348;SDS011;54234;50.320;3.474;2022-09-01T13:01:28;1.25;;;1.25;;
67348;SDS011;54234;50.320;3.474;2022-09-01T13:06:53;1.40;;;1.40;;
67348;SDS011;54234;50.320;3.474;2022-09-01T13:09:19;1.50;;;1.50;;
67348;SDS011;54234;50.320;3.474;2022-09-01T13:11:45;1.60;;;1.60;;
67348;SDS011;54234;50.320;3.474;2022-09-01T13:14:14;1.40;;;1.40;;
67348;SDS011;54234;50.320;3.474;2022-09-01T13:16:40;1.30;;;1.30;;
67348;SDS011;54234;50.320;3.474;2022-09-01T13:19:06;1.20;;;1.20;;
67348;SDS011;54234;50.320;3.474;2022-09-01T13:21:31;1.20;;;1.20;;
67348;SDS011;54234;50.320;3.474;2022-09-01T13:23:59;1.20;;;1.20;;
67348;SDS011;54234;50.320;3.474;2022-09-01T13:26:25;1.10;;;1.10;;
67348;SDS011;54234;50.320;3.474;2022-09-01T13:28:51;1.30;;;1.30;;
67348;SDS011;54234;50.320;3.474;2022-09-01T13:31:17;1.50;;;1.50;;
67348;SDS011;54234;50.320;3.474;2022-09-01T13:33:43;1.40;;;1.40;;
67348;SDS011;54234;50.320;3.474;2022-09-01T13:36:08;1.40;;;1.40;;
67348;SDS011;54234;50.320;3.474;2022-09-01T13:38:33;1.37;;;1.37;;
67348;SDS011;54234;50.320;3.474;2022-09-01T13:40:59;1.07;;;1.07;;
67348;SDS011;54234;50.320;3.474;2022-09-01T13:43:26;1.05;;;1.05;;
67348;SDS011;54234;50.320;3.474;2022-09-01T13:45:51;1.00;;;1.00;;
67348;SDS011;54234;50.320;3.474;2022-09-01T13:48:18;1.00;;;1.00;;
67348;SDS011;54234;50.320;3.474;2022-09-01T13:50:47;1.00;;;1.00;;
67348;SDS011;54234;50.320;3.474;2022-09-01T13:53:14;1.00;;;1.00;;
67348;SDS011;54234;50.320;3.474;2022-09-01T13:55:40;1.10;;;1.10;;
67348;SDS011;54234;50.320;3.474;2022-09-01T13:58:06;1.10;;;1.10;;
67348;SDS011;54234;50.320;3.474;2022-09-01T14:00:33;1.25;;;1.25;;
67348;SDS011;54234;50.320;3.474;2022-09-01T14:03:02;1.00;;;1.00;;
67348;SDS011;54234;50.320;3.474;2022-09-01T14:05:32;0.90;;;0.90;;
67348;SDS011;54234;50.320;3.474;2022-09-01T14:07:59;0.80;;;0.80;;
67348;SDS011;54234;50.320;3.474;2022-09-01T14:10:25;0.80;;;0.80;;
67348;SDS011;54234;50.320;3.474;2022-09-01T14:12:52;0.70;;;0.70;;
67348;SDS011;54234;50.320;3.474;2022-09-01T14:15:18;0.70;;;0.70;;
67348;SDS011;54234;50.320;3.474;2022-09-01T14:17:45;0.70;;;0.70;;
67348;SDS011;54234;50.320;3.474;2022-09-01T14:20:16;0.70;;;0.70;;
67348;SDS011;54234;50.320;3.474;2022-09-01T14:22:46;0.70;;;0.70;;
67348;SDS011;54234;50.320;3.474;2022-09-01T14:25:13;0.70;;;0.70;;
67348;SDS011;54234;50.320;3.474;2022-09-01T14:27:39;0.70;;;0.70;;
67348;SDS011;54234;50.320;3.474;2022-09-01T14:30:05;0.60;;;0.60;;
67348;SDS011;54234;50.320;3.474;2022-09-01T14:32:32;0.70;;;0.70;;
67348;SDS011;54234;50.320;3.474;2022-09-01T14:34:58;0.70;;;0.70;;
67348;SDS011;54234;50.320;3.474;2022-09-01T14:37:24;0.70;;;0.70;;
67348;SDS011;54234;50.320;3.474;2022-09-01T14:39:53;0.80;;;0.80;;
67348;SDS011;54234;50.320;3.474;2022-09-01T14:42:19;0.90;;;0.90;;
67348;SDS011;54234;50.320;3.474;2022-09-01T14:44:46;0.90;;;0.90;;
67348;SDS011;54234;50.320;3.474;2022-09-01T14:47:12;0.90;;;0.90;;
67348;SDS011;54234;50.320;3.474;2022-09-01T14:49:37;1.00;;;1.00;;
67348;SDS011;54234;50.320;3.474;2022-09-01T14:52:03;1.00;;;1.00;;
67348;SDS011;54234;50.320;3.474;2022-09-01T14:54:30;0.90;;;0.90;;
67348;SDS011;54234;50.320;3.474;2022-09-01T14:56:56;0.90;;;0.90;;
67348;SDS011;54234;50.320;3.474;2022-09-01T14:59:21;0.80;;;0.80;;
67348;SDS011;54234;50.320;3.474;2022-09-01T15:01:47;0.80;;;0.80;;
67348;SDS011;54234;50.320;3.474;2022-09-01T15:04:12;0.80;;;0.80;;
67348;SDS011;54234;50.320;3.474;2022-09-01T15:06:37;0.80;;;0.80;;
67348;SDS011;54234;50.320;3.474;2022-09-01T15:09:03;0.60;;;0.60;;
67348;SDS011;54234;50.320;3.474;2022-09-01T15:11:28;0.60;;;0.60;;
67348;SDS011;54234;50.320;3.474;2022-09-01T15:13:53;0.50;;;0.50;;
67348;SDS011;54234;50.320;3.474;2022-09-01T15:16:20;0.50;;;0.50;;
67348;SDS011;54234;50.320;3.474;2022-09-01T15:18:47;0.50;;;0.50;;
67348;SDS011;54234;50.320;3.474;2022-09-01T15:23:48;0.50;;;0.50;;
67348;SDS011;54234;50.320;3.474;2022-09-01T15:26:15;0.50;;;0.50;;
67348;SDS011;54234;50.320;3.474;2022-09-01T15:28:41;0.50;;;0.50;;
67348;SDS011;54234;50.320;3.474;2022-09-01T15:31:07;0.50;;;0.50;;
67348;SDS011;54234;50.320;3.474;2022-09-01T15:33:34;0.50;;;0.50;;
67348;SDS011;54234;50.320;3.474;2022-09-01T15:35:59;0.50;;;0.50;;
67348;SDS011;54234;50.320;3.474;2022-09-01T15:38:25;0.50;;;0.50;;
67348;SDS011;54234;50.320;3.474;2022-09-01T15:40:50;0.50;;;0.50;;
67348;SDS011;54234;50.320;3.474;2022-09-01T15:43:16;0.50;;;0.50;;
67348;SDS011;54234;50.320;3.474;2022-09-01T15:45:41;0.50;;;0.50;;
67348;SDS011;54234;50.320;3.474;2022-09-01T15:48:10;0.50;;;0.50;;
67348;SDS011;54234;50.320;3.474;2022-09-01T15:50:36;0.50;;;0.50;;
67348;SDS011;54234;50.320;3.474;2022-09-01T15:53:02;0.50;;;0.50;;
67348;SDS011;54234;50.320;3.474;2022-09-01T15:55:45;0.50;;;0.50;;
67348;SDS011;54234;50.320;3.474;2022-09-01T15:58:12;0.50;;;0.50;;
67348;SDS011;54234;50.320;3.474;2022-09-01T16:00:39;0.40;;;0.40;;
67348;SDS011;54234;50.320;3.474;2022-09-01T16:03:05;0.50;;;0.50;;
67348;SDS011;54234;50.320;3.474;2022-09-01T16:05:32;0.47;;;0.47;;